MSC Vigo — A8ZV8 — position and weather

sailwx.info

Track history (hours):
 
Tides and Currents Weather Stations Pressure Air Temp Water Temp Dewpoint Dewpoint Depression Visibility Wind Speed Wind Dir Waves Ship Positions

MSC Vigo

Last reported at 2016-Jul-16 09:07 UTC. Time now 2016-Jul-25 02:28 UTC.
Position S 24°02' W 045°59'.
Warning: this ship's position is 8 days out of date.

Length 270 m; draft 11.6 m.

Type: Ship (hazmat cat A). MMSI: 636092276.

Date/timePositionNaut miles runAvg speedWind from/ knotsBaromVisibWave heightAir tempDewpointWater temp
2016-Jul-16 09:07S 24°02' W 045°59'1017.5
2016-Jul-16 08:33S 24°05' W 046°10'1110.5
2016-Jul-16 07:33S 24°01' W 046°20'6 5.1
2016-Jul-16 06:23S 23°55' W 046°20'1 0.3
2016-Jul-16 04:05S 23°55' W 046°21'0 0.0
2016-Jul-16 03:26S 23°55' W 046°21'0 0.0
2016-Jul-16 02:32S 23°55' W 046°21'0 0.0
2016-Jul-16 01:32S 23°55' W 046°21'0 0.0
2016-Jul-15 15:33S 23°55' W 046°21'5 4.9
2016-Jul-15 14:33S 23°60' W 046°20'6 5.7
2016-Jul-15 13:33S 24°05' W 046°18'1 1.3
2016-Jul-15 12:32S 24°06' W 046°17'0 0.1
2016-Jul-15 11:32S 24°06' W 046°17'0 0.2
2016-Jul-15 10:32S 24°06' W 046°17'0 0.2
2016-Jul-15 09:26S 24°07' W 046°17'0 0.0
2016-Jul-15 08:32S 24°07' W 046°17'3 2.9
2016-Jul-15 07:33S 24°09' W 046°16'9 9.2
2016-Jul-15 06:33S 24°15' W 046°24'1010.0
2016-Jul-15 05:33S 24°24' W 046°30'1010.2
2016-Jul-15 04:33S 24°33' W 046°35'1010.1
2016-Jul-15 03:33S 24°40' W 046°42'1010.0
2016-Jul-15 02:33S 24°47' W 046°50'10 9.9
2016-Jul-15 01:33S 24°54' W 046°57'10 9.8
2016-Jul-15 00:33S 25°01' W 047°05'1010.1
2016-Jul-14 23:33S 25°09' W 047°12'1210.3
2016-Jul-14 22:24S 25°17' W 047°21'  
2016-Jul-12 10:27S 26°54' W 048°32'0 0.0
2016-Jul-12 09:31S 26°55' W 048°32'0 0.0
2016-Jul-12 08:19S 26°55' W 048°32'0 0.0
2016-Jul-12 05:25S 26°54' W 048°32'48 8.2
2016-Jul-11 23:33S 27°37' W 048°07'1111.1
2016-Jul-11 22:33S 27°47' W 048°11'  
Track history (hours):
 
Tides and Currents Weather Stations Pressure Air Temp Water Temp Dewpoint Dewpoint Depression Visibility Wind Speed Wind Dir Waves Ship Positions

MSC Vigo

Last reported at 2016-Jul-16 09:07 UTC. Time now 2016-Jul-25 02:28 UTC.
Position S 24°02' W 045°59'.
Warning: this ship's position is 8 days out of date.

Length 270 m; draft 11.6 m.

Type: Ship (hazmat cat A). MMSI: 636092276.

Date/timePositionNaut miles runAvg speedWind from/ knotsBaromVisibWave heightAir tempDewpointWater temp
2016-Jul-16 09:07S 24°02' W 045°59'1017.5
2016-Jul-16 08:33S 24°05' W 046°10'1110.5
2016-Jul-16 07:33S 24°01' W 046°20'6 5.1
2016-Jul-16 06:23S 23°55' W 046°20'1 0.3
2016-Jul-16 04:05S 23°55' W 046°21'0 0.0
2016-Jul-16 03:26S 23°55' W 046°21'0 0.0
2016-Jul-16 02:32S 23°55' W 046°21'0 0.0
2016-Jul-16 01:32S 23°55' W 046°21'0 0.0
2016-Jul-15 15:33S 23°55' W 046°21'5 4.9
2016-Jul-15 14:33S 23°60' W 046°20'6 5.7
2016-Jul-15 13:33S 24°05' W 046°18'1 1.3
2016-Jul-15 12:32S 24°06' W 046°17'0 0.1
2016-Jul-15 11:32S 24°06' W 046°17'0 0.2
2016-Jul-15 10:32S 24°06' W 046°17'0 0.2
2016-Jul-15 09:26S 24°07' W 046°17'0 0.0
2016-Jul-15 08:32S 24°07' W 046°17'3 2.9
2016-Jul-15 07:33S 24°09' W 046°16'9 9.2
2016-Jul-15 06:33S 24°15' W 046°24'1010.0
2016-Jul-15 05:33S 24°24' W 046°30'1010.2
2016-Jul-15 04:33S 24°33' W 046°35'1010.1
2016-Jul-15 03:33S 24°40' W 046°42'1010.0
2016-Jul-15 02:33S 24°47' W 046°50'10 9.9
2016-Jul-15 01:33S 24°54' W 046°57'10 9.8
2016-Jul-15 00:33S 25°01' W 047°05'1010.1
2016-Jul-14 23:33S 25°09' W 047°12'1210.3
2016-Jul-14 22:24S 25°17' W 047°21'  
2016-Jul-12 10:27S 26°54' W 048°32'0 0.0
2016-Jul-12 09:31S 26°55' W 048°32'0 0.0
2016-Jul-12 08:19S 26°55' W 048°32'0 0.0
2016-Jul-12 05:25S 26°54' W 048°32'48 8.2
2016-Jul-11 23:33S 27°37' W 048°07'1111.1
2016-Jul-11 22:33S 27°47' W 048°11'  

Dump ship's entire track history